Weitere Informationen folgen in Kürze ...

Flugwetter Augsburg

[source: ADDS]
METAR
EDMA 240750Z 11005KT 9999 OVC011 05/03 Q1027 =
TAF EDMA 240552Z 2406/2415 11005KT 9999 OVC007 PROB40 TEMPO 2407/2410 4000 BR OVC004
TAF
TAF EDMA 240552Z 2406/2415 11005KT 9999 OVC007 PROB40 TEMPO 2407/2410 4000 BR OVC004 =
Cookies erleichtern die Bereitstellung unserer Dienste. Mit der Nutzung unserer Dienste erklären Sie sich damit einverstanden, dass wir Cookies verwenden.
Weitere Informationen Ok